Main page
METAR-TAF:

METAR-TAF

Airports :

Kuressaare Airport

Kuressaare, Estonia

latitude: 58-13-48N, longitude: 022-30-34E, elevation: 4 m

Current weather observation

The report was made 31 minutes ago, at 03:50 UTC
Wind 6 kt from the South/Southwest
Temperature 2°C
Humidity 100%
Pressure 1000 hPa
Visibility 10 km or more
Scattered clouds at a height of 300 ft

METAR: EEKE 250350Z AUTO 21006KT 9999NDV SCT003 02/02 Q1000

Time: 06:21 (04:21 UTC)

Forecast

The report was made 13 hours and 21 minutes ago, at 15:00 UTC
Forecast valid from 24 at 16 UTC to 24 at 22 UTC
Wind 13 kt from the West/Northwest with gusts up to 23 kt
Visibility 10 km or more
Scattered clouds at a height of 3000 ft
Becoming
from 24 at 16 UTC to 24 at 18 UTC
Wind 9 kt from the West

TAF: EEKE 241500Z 2416/2422 29013G23KT 9999 SCT030 BECMG 2416/2418 27009KT

Weather observations and forecasts of more than 4000 airports (METAR and TAF reports).

The available stations are represented by yellow and red dots on the map.

Hover mouse over dot to see the name of the station.

Then click to see weather observations and forecasts.

To change the map : click on the green buttons with a black cross to zoom in, on the green button with a dash to zoom out, or on the green arrows for adjacent maps.


METAR-TAF: